createdAt,value
2018-05-29T00:01:32.652Z,23.00
2018-05-29T00:03:58.932Z,23.00
2018-05-29T00:06:25.206Z,22.90
2018-05-29T00:08:51.381Z,22.80
2018-05-29T00:11:17.622Z,22.80
2018-05-29T00:13:43.818Z,22.70
2018-05-29T00:16:10.193Z,22.60
2018-05-29T00:18:37.161Z,22.40
2018-05-29T00:21:03.360Z,22.40
2018-05-29T00:23:29.562Z,22.30
2018-05-29T00:25:55.755Z,22.20
2018-05-29T00:28:22.056Z,22.10
2018-05-29T00:30:48.993Z,22.00
2018-05-29T00:33:15.177Z,21.90
2018-05-29T00:35:41.375Z,21.90
2018-05-29T00:38:07.634Z,21.80
2018-05-29T00:40:33.837Z,21.80
2018-05-29T00:43:00.065Z,21.70
2018-05-29T00:45:26.318Z,21.70
2018-05-29T00:47:52.523Z,21.60
2018-05-29T00:50:18.718Z,21.50
2018-05-29T00:52:45.678Z,21.40
2018-05-29T00:55:24.087Z,21.40
2018-05-29T00:57:50.305Z,21.40
2018-05-29T01:00:17.230Z,21.30
2018-05-29T01:02:43.432Z,21.30
2018-05-29T01:05:09.642Z,21.30
2018-05-29T01:07:35.852Z,21.30
2018-05-29T01:10:02.040Z,21.30
2018-05-29T01:12:28.245Z,21.30
2018-05-29T01:14:54.449Z,21.20
2018-05-29T01:17:20.654Z,21.10
2018-05-29T01:19:46.833Z,21.00
2018-05-29T01:22:13.049Z,21.00
2018-05-29T01:24:39.246Z,21.00
2018-05-29T01:27:05.469Z,20.90
2018-05-29T01:29:31.696Z,20.90
2018-05-29T01:31:57.873Z,20.90
2018-05-29T01:34:24.102Z,21.00
2018-05-29T01:36:50.275Z,21.00
2018-05-29T01:39:16.479Z,20.90
2018-05-29T01:41:43.478Z,20.90
2018-05-29T01:44:09.677Z,20.90
2018-05-29T01:46:35.926Z,20.90
2018-05-29T01:49:02.131Z,20.90
2018-05-29T01:51:28.311Z,20.90
2018-05-29T01:53:54.504Z,20.80
2018-05-29T01:56:20.677Z,20.80
2018-05-29T01:58:46.881Z,20.70
2018-05-29T02:01:13.068Z,20.60
2018-05-29T02:03:39.261Z,20.60
2018-05-29T02:06:06.231Z,20.40
2018-05-29T02:08:32.479Z,20.50
2018-05-29T02:10:58.661Z,20.40
2018-05-29T02:13:24.865Z,20.40
2018-05-29T02:15:51.050Z,20.40
2018-05-29T02:18:17.241Z,20.40
2018-05-29T02:20:43.424Z,20.30
2018-05-29T02:23:09.617Z,20.30
2018-05-29T02:25:35.805Z,20.30
2018-05-29T02:28:02.043Z,20.30
2018-05-29T02:30:28.225Z,20.30
2018-05-29T02:32:54.417Z,20.30
2018-05-29T02:35:20.647Z,20.30
2018-05-29T02:37:46.861Z,20.20
2018-05-29T02:40:13.057Z,20.10
2018-05-29T02:42:39.233Z,20.00
2018-05-29T02:45:05.456Z,20.10
2018-05-29T02:47:31.656Z,20.10
2018-05-29T02:49:57.884Z,20.00
2018-05-29T02:52:24.810Z,20.00
2018-05-29T02:54:51.041Z,19.90
2018-05-29T02:57:17.223Z,19.90
2018-05-29T02:59:43.446Z,20.00
2018-05-29T03:02:09.653Z,20.00
2018-05-29T03:04:36.598Z,19.90
2018-05-29T03:07:02.777Z,19.80
2018-05-29T03:09:28.992Z,19.90
2018-05-29T03:11:55.210Z,19.80
2018-05-29T03:14:21.399Z,20.00
2018-05-29T03:16:48.326Z,19.90
2018-05-29T03:19:14.544Z,19.90
2018-05-29T03:21:40.753Z,19.90
2018-05-29T03:24:06.964Z,19.90
2018-05-29T03:26:33.159Z,19.90
2018-05-29T03:29:00.112Z,19.80
2018-05-29T03:31:26.339Z,19.80
2018-05-29T03:33:52.529Z,19.70
2018-05-29T03:36:18.719Z,19.60
2018-05-29T03:38:44.931Z,19.50
2018-05-29T03:41:11.157Z,19.50
2018-05-29T03:43:37.378Z,19.40
2018-05-29T03:46:03.577Z,19.40
2018-05-29T03:48:29.786Z,19.50
2018-05-29T03:50:55.966Z,19.50
2018-05-29T03:53:22.166Z,19.60
2018-05-29T03:55:48.356Z,19.60
2018-05-29T03:58:14.570Z,19.60
2018-05-29T04:00:40.782Z,19.50
2018-05-29T04:03:06.961Z,19.50
2018-05-29T04:05:33.164Z,19.50
2018-05-29T04:07:59.369Z,19.60
2018-05-29T04:10:25.594Z,19.70
2018-05-29T04:12:51.789Z,19.60
2018-05-29T04:15:18.768Z,19.70
2018-05-29T04:17:44.961Z,19.70
2018-05-29T04:20:12.011Z,19.80
2018-05-29T04:22:38.954Z,19.90
2018-05-29T04:25:05.366Z,19.90
2018-05-29T04:27:31.593Z,19.90
2018-05-29T04:29:57.792Z,20.10
2018-05-29T04:32:24.004Z,20.10
2018-05-29T04:34:50.253Z,20.20
2018-05-29T04:37:16.460Z,20.30
2018-05-29T04:39:42.685Z,20.40
2018-05-29T04:42:08.914Z,20.40
2018-05-29T04:44:35.142Z,20.50
2018-05-29T04:47:01.393Z,20.60
2018-05-29T04:49:27.569Z,20.60
2018-05-29T04:51:53.793Z,20.70
2018-05-29T04:54:20.134Z,20.80
2018-05-29T04:56:46.341Z,20.80
2018-05-29T04:59:13.281Z,20.90
2018-05-29T05:01:39.463Z,20.90
2018-05-29T05:04:05.653Z,21.00
2018-05-29T05:06:31.862Z,21.00
2018-05-29T05:08:58.796Z,21.10
2018-05-29T05:11:25.026Z,21.00
2018-05-29T05:13:51.269Z,21.10
2018-05-29T05:16:17.641Z,21.10
2018-05-29T05:18:43.908Z,21.20
2018-05-29T05:21:10.162Z,21.20
2018-05-29T05:23:37.137Z,21.30
2018-05-29T05:26:03.412Z,21.30
2018-05-29T05:28:29.572Z,21.30
2018-05-29T05:30:55.845Z,21.40
2018-05-29T05:33:22.040Z,21.40
2018-05-29T05:35:48.273Z,21.50
2018-05-29T05:38:14.467Z,21.50
2018-05-29T05:40:40.669Z,21.50
2018-05-29T05:43:07.065Z,21.50
2018-05-29T05:45:33.270Z,21.60
2018-05-29T05:47:59.455Z,21.70
2018-05-29T05:50:25.767Z,21.80
2018-05-29T05:52:51.957Z,21.80
2018-05-29T05:55:18.141Z,21.80
2018-05-29T05:57:44.345Z,21.90
2018-05-29T06:00:10.571Z,22.00
2018-05-29T06:02:37.573Z,22.00
2018-05-29T06:05:04.589Z,22.10
2018-05-29T06:07:30.778Z,22.10
2018-05-29T06:09:57.026Z,22.10
2018-05-29T06:12:23.225Z,22.20
2018-05-29T06:14:49.447Z,22.20
2018-05-29T06:17:15.653Z,22.30
2018-05-29T06:19:41.881Z,22.40
2018-05-29T06:22:08.834Z,22.50
2018-05-29T06:24:35.032Z,22.50
2018-05-29T06:27:01.256Z,22.60
2018-05-29T06:29:27.433Z,22.70
2018-05-29T06:31:53.659Z,22.80
2018-05-29T06:34:19.887Z,22.90
2018-05-29T06:36:46.142Z,22.90
2018-05-29T06:39:12.344Z,23.00
2018-05-29T06:41:38.553Z,23.00
2018-05-29T06:44:04.746Z,23.10
2018-05-29T06:46:30.973Z,23.20
2018-05-29T06:48:57.195Z,23.30
2018-05-29T06:51:23.385Z,23.30
2018-05-29T06:53:49.605Z,23.30
2018-05-29T06:56:15.869Z,23.40
2018-05-29T06:58:42.096Z,23.40
2018-05-29T07:01:08.311Z,23.60
2018-05-29T07:03:34.572Z,23.60
2018-05-29T07:06:00.788Z,23.60
2018-05-29T07:08:27.018Z,23.70
2018-05-29T07:10:53.226Z,23.90
2018-05-29T07:13:19.428Z,24.00
2018-05-29T07:15:45.624Z,24.00
2018-05-29T07:18:12.551Z,24.20
2018-05-29T07:20:38.762Z,24.20
2018-05-29T07:23:04.941Z,24.30
2018-05-29T07:25:31.147Z,24.30
2018-05-29T07:27:58.092Z,24.50
2018-05-29T07:30:24.367Z,24.50
2018-05-29T07:32:50.577Z,24.50
2018-05-29T07:35:16.799Z,24.60
2018-05-29T07:37:43.021Z,24.70
2018-05-29T07:40:09.230Z,24.80
2018-05-29T07:42:35.483Z,24.90
2018-05-29T07:45:01.670Z,25.00
2018-05-29T07:47:27.883Z,25.00
2018-05-29T07:49:54.079Z,25.10
2018-05-29T07:52:20.293Z,25.20
2018-05-29T07:54:46.484Z,25.30
2018-05-29T07:57:13.447Z,25.50
2018-05-29T07:59:40.368Z,25.60
2018-05-29T08:02:06.773Z,25.60
2018-05-29T08:04:32.957Z,25.60
2018-05-29T08:06:59.175Z,25.70
2018-05-29T08:09:26.126Z,25.90
2018-05-29T08:11:52.347Z,25.80
2018-05-29T08:14:19.271Z,26.10
2018-05-29T08:16:45.473Z,26.00
2018-05-29T08:19:11.654Z,26.10
2018-05-29T08:21:37.930Z,26.20
2018-05-29T08:24:04.166Z,26.20
2018-05-29T08:26:30.382Z,26.40
2018-05-29T08:28:56.593Z,26.50
2018-05-29T08:31:22.794Z,26.50
2018-05-29T08:33:48.997Z,26.60
2018-05-29T08:36:16.120Z,26.80
2018-05-29T08:38:42.277Z,26.70
2018-05-29T08:41:09.226Z,26.90
2018-05-29T08:43:36.185Z,27.00
2018-05-29T08:46:02.413Z,27.00
2018-05-29T08:48:28.626Z,27.10
2018-05-29T08:50:54.857Z,27.10
2018-05-29T08:53:21.073Z,27.20
2018-05-29T08:55:47.269Z,27.30
2018-05-29T08:58:13.538Z,27.40
2018-05-29T09:00:39.738Z,27.40
2018-05-29T09:03:05.945Z,27.50
2018-05-29T09:05:32.146Z,27.60
2018-05-29T09:07:58.346Z,27.70
2018-05-29T09:10:24.564Z,27.70
2018-05-29T09:12:50.777Z,27.90
2018-05-29T09:15:16.974Z,27.90
2018-05-29T09:17:43.186Z,28.00
2018-05-29T09:20:09.410Z,28.00
2018-05-29T09:22:35.925Z,28.10
2018-05-29T09:25:02.873Z,28.10
2018-05-29T09:27:29.084Z,28.20
2018-05-29T09:29:56.038Z,28.30
2018-05-29T09:32:22.262Z,28.30
2018-05-29T09:34:48.490Z,28.40
2018-05-29T09:37:14.719Z,28.50
2018-05-29T09:39:40.894Z,28.50
2018-05-29T09:42:07.174Z,28.60
2018-05-29T09:44:33.380Z,28.60
2018-05-29T09:46:59.604Z,28.60
2018-05-29T09:49:25.801Z,28.60
2018-05-29T09:51:51.996Z,28.60
2018-05-29T09:54:18.267Z,28.60
2018-05-29T09:56:44.471Z,28.70
2018-05-29T09:59:10.696Z,28.80
2018-05-29T10:01:36.913Z,28.90
2018-05-29T10:04:03.126Z,29.00
2018-05-29T10:06:29.325Z,29.00
2018-05-29T10:08:55.534Z,29.20
2018-05-29T10:11:21.743Z,29.10
2018-05-29T10:13:47.940Z,29.20
2018-05-29T10:16:14.109Z,29.20
2018-05-29T10:18:40.346Z,29.20
2018-05-29T10:21:06.536Z,29.30
2018-05-29T10:23:32.748Z,29.30
2018-05-29T10:25:58.949Z,29.20
2018-05-29T10:28:25.145Z,29.20
2018-05-29T10:30:51.383Z,29.20
2018-05-29T10:33:17.580Z,29.30
2018-05-29T10:35:43.818Z,29.30
2018-05-29T10:38:10.018Z,29.40
2018-05-29T10:40:36.226Z,29.40
2018-05-29T10:43:03.233Z,29.60
2018-05-29T10:45:29.417Z,29.60
2018-05-29T10:47:55.670Z,29.70
2018-05-29T10:50:21.862Z,29.70
2018-05-29T10:52:48.817Z,29.70
2018-05-29T10:55:14.993Z,29.70
2018-05-29T10:57:41.205Z,29.70
2018-05-29T11:00:07.403Z,29.80
2018-05-29T11:02:33.590Z,29.80
2018-05-29T11:04:59.790Z,29.80
2018-05-29T11:07:25.957Z,29.80
2018-05-29T11:09:52.961Z,29.90
2018-05-29T11:12:19.166Z,29.90
2018-05-29T11:14:45.399Z,30.00
2018-05-29T11:17:11.623Z,30.10
2018-05-29T11:19:37.854Z,30.10
2018-05-29T11:22:04.110Z,30.20
2018-05-29T11:24:30.329Z,30.20
2018-05-29T11:26:56.529Z,30.20
2018-05-29T11:29:22.759Z,30.30
2018-05-29T11:31:48.990Z,30.20
2018-05-29T11:34:15.241Z,30.20
2018-05-29T11:36:41.477Z,30.20
2018-05-29T11:39:07.693Z,30.20
2018-05-29T11:41:33.905Z,30.10
2018-05-29T11:44:00.137Z,30.20
2018-05-29T11:46:26.327Z,30.30
2018-05-29T11:48:52.549Z,30.50
2018-05-29T11:51:18.741Z,30.50
2018-05-29T11:53:45.214Z,30.60
2018-05-29T11:56:11.683Z,30.70
2018-05-29T11:58:37.945Z,30.60
2018-05-29T12:01:05.286Z,30.60
2018-05-29T12:03:31.591Z,30.60
2018-05-29T12:05:57.953Z,30.70
2018-05-29T12:08:24.153Z,30.80
2018-05-29T12:10:50.411Z,30.90
2018-05-29T12:13:16.605Z,31.10
2018-05-29T12:15:42.814Z,31.20
2018-05-29T12:18:09.053Z,31.20
2018-05-29T12:20:35.258Z,31.30
2018-05-29T12:23:01.469Z,31.30
2018-05-29T12:25:27.723Z,31.30
2018-05-29T12:27:53.950Z,31.50
2018-05-29T12:30:20.207Z,31.50
2018-05-29T12:32:46.413Z,31.50
2018-05-29T12:35:12.664Z,31.60
2018-05-29T12:37:38.862Z,31.50
2018-05-29T12:40:05.074Z,31.50
2018-05-29T12:42:31.370Z,31.50
2018-05-29T12:44:57.560Z,31.50
2018-05-29T12:47:23.774Z,31.60
2018-05-29T12:49:49.997Z,31.80
2018-05-29T12:52:16.227Z,31.90
2018-05-29T12:54:42.466Z,32.00
2018-05-29T12:57:08.700Z,32.20
2018-05-29T12:59:34.886Z,32.20
2018-05-29T13:02:01.134Z,32.00
2018-05-29T13:04:27.352Z,31.80
2018-05-29T13:06:53.572Z,31.70
2018-05-29T13:09:21.361Z,31.40
2018-05-29T13:11:47.561Z,31.30
2018-05-29T13:14:14.526Z,31.20
2018-05-29T13:16:40.800Z,31.10
2018-05-29T13:19:07.011Z,31.00
2018-05-29T13:21:33.229Z,31.00
2018-05-29T13:23:59.451Z,30.90
2018-05-29T13:26:25.685Z,30.80
2018-05-29T13:28:51.886Z,30.60
2018-05-29T13:31:18.197Z,30.60
2018-05-29T13:33:44.402Z,30.40
2018-05-29T13:36:10.730Z,30.30
2018-05-29T13:38:36.931Z,30.10
2018-05-29T13:41:03.183Z,30.00
2018-05-29T13:43:29.416Z,30.00
2018-05-29T13:45:55.658Z,29.90
2018-05-29T13:48:21.875Z,29.80
2018-05-29T13:50:48.065Z,29.70
2018-05-29T13:53:14.287Z,29.50
2018-05-29T13:55:40.524Z,29.50
2018-05-29T13:58:06.781Z,29.40
2018-05-29T14:00:32.971Z,29.30
2018-05-29T14:02:59.234Z,29.20
2018-05-29T14:05:25.454Z,29.00
2018-05-29T14:07:51.686Z,28.80
2018-05-29T14:10:17.922Z,28.70
2018-05-29T14:12:44.174Z,28.60
2018-05-29T14:15:11.133Z,28.40
2018-05-29T14:17:37.345Z,28.40
2018-05-29T14:20:03.577Z,28.20
2018-05-29T14:22:29.787Z,28.10
2018-05-29T14:24:56.001Z,28.00
2018-05-29T14:27:22.233Z,28.00
2018-05-29T14:29:48.421Z,27.90
2018-05-29T14:32:14.642Z,27.90
2018-05-29T14:34:40.849Z,27.80
2018-05-29T14:37:07.840Z,27.50
2018-05-29T14:39:34.081Z,27.50
2018-05-29T14:42:00.324Z,27.20
2018-05-29T14:44:26.518Z,26.90
2018-05-29T14:46:52.754Z,26.70
2018-05-29T14:49:18.973Z,26.50
2018-05-29T14:51:45.181Z,26.30
2018-05-29T14:54:11.877Z,26.10
2018-05-29T14:56:38.133Z,26.00
2018-05-29T14:59:04.442Z,25.90
2018-05-29T15:01:30.645Z,25.70
2018-05-29T15:03:56.902Z,25.60
2018-05-29T15:06:23.119Z,25.50
2018-05-29T15:08:49.491Z,25.50
2018-05-29T15:11:15.672Z,25.50
2018-05-29T15:13:41.904Z,25.40
2018-05-29T15:16:08.098Z,25.30
2018-05-29T15:18:34.379Z,25.30
2018-05-29T15:21:00.545Z,25.30
2018-05-29T15:23:26.770Z,25.20
2018-05-29T15:25:52.984Z,25.20
2018-05-29T15:28:19.220Z,25.10
2018-05-29T15:30:45.474Z,25.00
2018-05-29T15:33:11.801Z,25.00
2018-05-29T15:35:37.995Z,24.80
2018-05-29T15:38:04.993Z,24.70
2018-05-29T15:40:31.185Z,24.60
2018-05-29T15:42:57.398Z,24.40
2018-05-29T15:45:23.601Z,24.10
2018-05-29T15:47:50.827Z,24.00
2018-05-29T15:50:17.095Z,24.00
2018-05-29T15:52:43.423Z,23.90
2018-05-29T15:55:09.639Z,23.80
2018-05-29T15:57:36.650Z,23.80
2018-05-29T16:00:02.889Z,23.70
2018-05-29T16:02:29.117Z,23.70
2018-05-29T16:04:55.400Z,23.50
2018-05-29T16:07:21.733Z,23.50
2018-05-29T16:09:48.024Z,23.40
2018-05-29T16:12:14.237Z,23.30
2018-05-29T16:14:40.487Z,23.30
2018-05-29T16:17:06.778Z,23.20
2018-05-29T16:19:33.292Z,23.20
2018-05-29T16:21:59.488Z,23.10
2018-05-29T16:24:25.819Z,23.10
2018-05-29T16:26:52.050Z,22.90
2018-05-29T16:29:18.300Z,22.80
2018-05-29T16:31:44.486Z,22.80
2018-05-29T16:34:10.695Z,22.70
2018-05-29T16:36:36.917Z,22.60
2018-05-29T16:39:03.298Z,22.60
2018-05-29T16:41:29.597Z,22.60
2018-05-29T16:43:56.595Z,22.60
2018-05-29T16:46:22.832Z,22.60
2018-05-29T16:48:49.056Z,22.60
2018-05-29T16:51:15.266Z,22.60
2018-05-29T16:53:41.496Z,22.50
2018-05-29T16:56:07.720Z,22.50
2018-05-29T16:58:33.978Z,22.50
2018-05-29T17:01:00.201Z,22.40
2018-05-29T17:03:26.405Z,22.40
2018-05-29T17:05:52.632Z,22.50
2018-05-29T17:08:18.934Z,22.40
2018-05-29T17:10:45.887Z,22.50
2018-05-29T17:13:12.155Z,22.40
2018-05-29T17:15:38.400Z,22.30
2018-05-29T17:18:04.677Z,22.40
2018-05-29T17:20:30.970Z,22.40
2018-05-29T17:22:57.187Z,22.40
2018-05-29T17:25:23.421Z,22.50
2018-05-29T17:27:49.625Z,22.60
2018-05-29T17:30:15.885Z,22.60
2018-05-29T17:32:42.140Z,22.60
2018-05-29T17:35:08.367Z,22.60
2018-05-29T17:37:34.557Z,22.70
2018-05-29T17:40:00.778Z,22.70
2018-05-29T17:42:26.967Z,22.80
2018-05-29T17:44:53.197Z,22.90
2018-05-29T17:47:19.415Z,22.90
2018-05-29T17:49:45.644Z,23.00
2018-05-29T17:52:12.066Z,23.00
2018-05-29T17:54:38.267Z,22.90
2018-05-29T17:57:04.482Z,22.90
2018-05-29T17:59:30.819Z,23.00
2018-05-29T18:01:57.421Z,23.00
2018-05-29T18:04:23.661Z,23.10
2018-05-29T18:06:49.881Z,23.00
2018-05-29T18:09:16.746Z,23.00
2018-05-29T18:11:42.967Z,22.90
2018-05-29T18:14:09.247Z,22.80
2018-05-29T18:16:36.246Z,22.70
2018-05-29T18:19:02.581Z,22.70
2018-05-29T18:21:28.798Z,22.70
2018-05-29T18:23:55.023Z,22.60
2018-05-29T18:26:21.470Z,22.60
2018-05-29T18:28:47.759Z,22.60
2018-05-29T18:31:14.134Z,22.60
2018-05-29T18:33:40.349Z,22.60
2018-05-29T18:36:06.722Z,22.50
2018-05-29T18:38:32.980Z,22.50
2018-05-29T18:40:59.488Z,22.50
2018-05-29T18:43:25.792Z,22.40
2018-05-29T18:45:52.210Z,22.30
2018-05-29T18:48:18.596Z,22.30
2018-05-29T18:50:44.831Z,22.30
2018-05-29T18:53:11.027Z,22.30
2018-05-29T18:55:38.055Z,22.10
2018-05-29T18:58:04.295Z,22.10
2018-05-29T19:00:30.574Z,22.10
2018-05-29T19:02:56.786Z,22.10
2018-05-29T19:05:23.366Z,22.10
2018-05-29T19:07:49.625Z,22.10
2018-05-29T19:10:16.600Z,22.00
2018-05-29T19:12:42.835Z,22.00
2018-05-29T19:15:09.464Z,22.00
2018-05-29T19:17:35.931Z,22.00
2018-05-29T19:20:02.200Z,21.90
2018-05-29T19:22:28.471Z,22.00
2018-05-29T19:24:54.706Z,21.90
2018-05-29T19:27:20.913Z,21.80
2018-05-29T19:29:47.491Z,21.80
2018-05-29T19:32:13.686Z,21.80
2018-05-29T19:34:39.928Z,21.80
2018-05-29T19:37:06.165Z,21.80
2018-05-29T19:39:32.385Z,21.60
2018-05-29T19:41:58.587Z,21.60
2018-05-29T19:44:24.991Z,21.50
2018-05-29T19:46:51.165Z,21.40
2018-05-29T19:49:17.373Z,21.30
2018-05-29T19:51:43.800Z,21.20
2018-05-29T19:54:09.985Z,21.20
2018-05-29T19:56:36.308Z,21.20
2018-05-29T19:59:02.714Z,21.20
2018-05-29T20:01:28.989Z,21.20
2018-05-29T20:03:55.187Z,21.10
2018-05-29T20:06:21.426Z,21.10
2018-05-29T20:08:47.642Z,21.20
2018-05-29T20:11:13.851Z,21.10
2018-05-29T20:13:40.057Z,21.00
2018-05-29T20:16:06.413Z,21.00
2018-05-29T20:18:32.880Z,20.90
2018-05-29T20:20:59.126Z,20.90
2018-05-29T20:23:25.420Z,20.80
2018-05-29T20:25:51.750Z,20.80
2018-05-29T20:28:18.341Z,20.80
2018-05-29T20:30:44.578Z,21.00
2018-05-29T20:33:10.851Z,21.00
2018-05-29T20:35:37.267Z,21.00
2018-05-29T20:38:03.470Z,20.90
2018-05-29T20:40:30.676Z,20.80
2018-05-29T20:42:57.613Z,20.70
2018-05-29T20:45:23.841Z,20.70
2018-05-29T20:47:50.061Z,20.70
2018-05-29T20:50:16.313Z,20.80
2018-05-29T20:52:42.507Z,20.80
2018-05-29T20:55:09.083Z,20.70
2018-05-29T20:57:35.312Z,20.70
2018-05-29T21:00:01.742Z,20.70
2018-05-29T21:02:28.014Z,20.70
2018-05-29T21:04:54.201Z,20.70
2018-05-29T21:07:20.440Z,20.60
2018-05-29T21:09:46.694Z,20.70
2018-05-29T21:12:12.929Z,20.60
2018-05-29T21:14:39.125Z,20.60
2018-05-29T21:17:05.357Z,20.50
2018-05-29T21:19:31.759Z,20.50
2018-05-29T21:21:58.696Z,20.50
2018-05-29T21:24:24.861Z,20.50
2018-05-29T21:26:51.268Z,20.50
2018-05-29T21:29:17.446Z,20.40
2018-05-29T21:31:43.653Z,20.40
2018-05-29T21:34:09.846Z,20.40
2018-05-29T21:36:36.814Z,20.30
2018-05-29T21:39:03.045Z,20.30
2018-05-29T21:41:29.421Z,20.30
2018-05-29T21:43:55.613Z,20.30
2018-05-29T21:46:21.834Z,20.30
2018-05-29T21:48:48.065Z,20.30
2018-05-29T21:51:14.353Z,20.20
2018-05-29T21:53:40.675Z,20.30
2018-05-29T21:56:06.857Z,20.30
2018-05-29T21:58:33.054Z,20.30
2018-05-29T22:00:59.305Z,20.30
2018-05-29T22:03:25.491Z,20.30
2018-05-29T22:05:51.702Z,20.30
2018-05-29T22:08:17.890Z,20.40
2018-05-29T22:10:44.133Z,20.40
2018-05-29T22:13:10.334Z,20.50
2018-05-29T22:15:36.534Z,20.50
2018-05-29T22:18:03.554Z,20.40
2018-05-29T22:20:29.770Z,20.50
2018-05-29T22:22:56.404Z,20.40
2018-05-29T22:25:22.601Z,20.50
2018-05-29T22:27:48.832Z,20.50
2018-05-29T22:30:15.057Z,20.50
2018-05-29T22:32:41.266Z,20.50
2018-05-29T22:35:07.496Z,20.50
2018-05-29T22:37:33.690Z,20.50
2018-05-29T22:39:59.897Z,20.50
2018-05-29T22:42:26.113Z,20.50
2018-05-29T22:44:52.318Z,20.50
2018-05-29T22:47:18.515Z,20.50
2018-05-29T22:49:44.729Z,20.50
2018-05-29T22:52:11.001Z,20.40
2018-05-29T22:54:37.198Z,20.40
2018-05-29T22:57:03.495Z,20.40
2018-05-29T22:59:29.694Z,20.40
2018-05-29T23:01:55.908Z,20.40
2018-05-29T23:04:22.093Z,20.40
2018-05-29T23:06:48.323Z,20.40
2018-05-29T23:09:14.514Z,20.40
2018-05-29T23:11:40.721Z,20.40
2018-05-29T23:14:06.927Z,20.40
2018-05-29T23:16:33.149Z,20.40
2018-05-29T23:19:00.077Z,20.30
2018-05-29T23:21:27.034Z,20.30
2018-05-29T23:23:53.245Z,20.30
2018-05-29T23:26:19.516Z,20.40
2018-05-29T23:28:45.720Z,20.30
2018-05-29T23:31:11.897Z,20.30
2018-05-29T23:33:38.109Z,20.30
2018-05-29T23:36:04.329Z,20.30
2018-05-29T23:38:30.536Z,20.30
2018-05-29T23:40:56.726Z,20.30
2018-05-29T23:43:22.926Z,20.30
2018-05-29T23:45:49.142Z,20.30
2018-05-29T23:48:15.393Z,20.30
2018-05-29T23:50:41.574Z,20.40
2018-05-29T23:53:08.527Z,20.40
2018-05-29T23:55:34.810Z,20.30
2018-05-29T23:58:01.017Z,20.30
